Time;durP1;ratioP1;P1;durP2;ratioP2;P2;SDS_P1;SDS_P2;PMS_P1;PMS_P2;Temp;Humidity;BMP_temperature;BMP_pressure;BME280_temperature;BME280_humidity;BME280_pressure;Samples;Min_cycle;Max_cycle;Signal;HPM_P1;HPM_P2
2023/08/15 00:00:34;;;;;;;5.65;4.97;;;;;;;26.89;40.14;99877.59;5000465;28;20050;-65
2023/08/15 00:02:59;;;;;;;6.25;4.53;;;;;;;26.91;40.73;99878.16;5000351;28;20046;-65
2023/08/15 00:05:25;;;;;;;6.05;4.88;;;;;;;26.82;41.17;99871.59;5001005;28;20034;-65
2023/08/15 00:07:50;;;;;;;5.55;4.07;;;;;;;26.78;41.10;99877.81;5000910;28;20040;-65
2023/08/15 00:10:16;;;;;;;5.20;4.70;;;;;;;26.81;41.20;99874.56;4999263;28;20050;-65
2023/08/15 00:12:41;;;;;;;8.30;4.68;;;;;;;26.70;41.75;99871.81;4999725;28;20042;-64
2023/08/15 00:15:07;;;;;;;6.47;4.53;;;;;;;26.69;41.38;99877.50;5000685;28;20044;-65
2023/08/15 00:17:33;;;;;;;4.60;4.20;;;;;;;26.61;41.70;99878.00;4999463;28;20130;-65
2023/08/15 00:19:58;;;;;;;4.95;4.30;;;;;;;26.58;41.22;99882.06;5001241;28;20042;-65
2023/08/15 00:22:24;;;;;;;5.28;4.75;;;;;;;26.45;40.89;99887.16;5001104;28;20040;-65
2023/08/15 00:24:49;;;;;;;5.97;4.57;;;;;;;26.45;41.36;99885.25;4999560;28;20049;-65
2023/08/15 00:27:14;;;;;;;5.72;5.05;;;;;;;26.41;40.77;99884.16;5000725;28;20088;-64
2023/08/15 00:29:40;;;;;;;5.22;4.68;;;;;;;26.47;40.71;99888.53;5001061;28;20030;-65
2023/08/15 00:32:05;;;;;;;6.72;5.15;;;;;;;26.35;41.18;99891.44;4999483;28;20312;-65
2023/08/15 00:34:31;;;;;;;9.18;6.25;;;;;;;26.45;40.92;99893.41;4999766;28;20283;-65
2023/08/15 00:36:56;;;;;;;7.70;5.50;;;;;;;26.43;40.57;99886.59;5000246;28;20479;-65
2023/08/15 00:39:22;;;;;;;6.80;6.10;;;;;;;26.46;40.93;99891.50;5000126;28;20340;-64
2023/08/15 00:41:47;;;;;;;7.90;7.20;;;;;;;26.45;40.55;99882.53;5000390;28;20390;-65
2023/08/15 00:44:12;;;;;;;8.10;7.30;;;;;;;26.49;40.43;99885.56;5001485;28;20336;-65
2023/08/15 00:46:38;;;;;;;10.02;7.70;;;;;;;26.44;40.30;99888.25;4999813;28;20096;-65
2023/08/15 00:49:06;;;;;;;9.90;8.00;;;;;;;26.47;40.33;99883.09;5000530;28;20038;-65
2023/08/15 00:51:32;;;;;;;9.27;7.85;;;;;;;26.50;40.31;99881.75;5000789;28;20045;-65
2023/08/15 00:53:59;;;;;;;8.50;7.07;;;;;;;26.44;40.04;99869.22;4999648;28;20258;-65
2023/08/15 00:56:24;;;;;;;8.68;7.22;;;;;;;26.43;40.12;99878.47;5000818;28;20048;-66
2023/08/15 00:58:50;;;;;;;9.45;7.13;;;;;;;26.47;40.11;99874.13;5000429;28;20034;-65
2023/08/15 01:01:21;;;;;;;8.02;6.30;;;;;;;26.45;40.55;99877.13;5000234;28;20042;-65
2023/08/15 01:03:47;;;;;;;6.95;6.25;;;;;;;26.49;40.26;99875.50;5000412;28;20045;-65
2023/08/15 01:06:13;;;;;;;6.78;5.75;;;;;;;26.46;40.01;99867.88;5000778;28;20053;-65
2023/08/15 01:08:38;;;;;;;8.15;5.47;;;;;;;26.43;40.37;99862.16;5000429;28;20045;-65
2023/08/15 01:11:04;;;;;;;7.53;5.43;;;;;;;26.37;40.38;99866.75;4999472;28;20026;-65
2023/08/15 01:13:43;;;;;;;7.22;5.47;;;;;;;26.38;40.13;99862.94;4999856;28;20141;-65
2023/08/15 01:16:14;;;;;;;6.07;4.82;;;;;;;26.27;40.33;99867.47;4999229;28;20082;-65
2023/08/15 01:18:45;;;;;;;5.65;4.93;;;;;;;26.23;40.56;99860.94;4999946;28;20053;-64
2023/08/15 01:21:15;;;;;;;5.65;4.47;;;;;;;26.21;40.74;99863.09;4999247;28;20042;-64
2023/08/15 01:23:49;;;;;;;5.93;4.50;;;;;;;26.33;40.42;99860.22;4999549;28;20049;-65
2023/08/15 01:26:14;;;;;;;4.75;4.35;;;;;;;26.26;40.45;99863.13;4999073;28;20038;-65
2023/08/15 01:28:40;;;;;;;5.72;4.15;;;;;;;26.24;40.77;99862.56;5000546;28;20038;-65
2023/08/15 01:31:26;;;;;;;7.05;4.43;;;;;;;26.23;41.11;99854.69;4999734;28;20046;-66
2023/08/15 01:34:07;;;;;;;5.13;4.07;;;;;;;26.30;40.72;99855.28;4999197;28;20351;-66
2023/08/15 01:36:39;;;;;;;5.47;3.90;;;;;;;26.36;40.63;99848.81;4999689;28;20035;-65
2023/08/15 01:39:07;;;;;;;5.53;4.07;;;;;;;26.40;40.36;99849.94;5009365;28;20038;-65
2023/08/15 01:41:36;;;;;;;4.30;3.90;;;;;;;26.38;40.42;99846.66;5018515;28;20339;-65
2023/08/15 01:44:03;;;;;;;5.72;4.28;;;;;;;26.49;40.34;99842.91;4999216;28;20065;-65
2023/08/15 01:46:28;;;;;;;7.25;4.43;;;;;;;26.51;40.12;99848.09;4997837;28;20100;-65
2023/08/15 01:48:54;;;;;;;7.30;4.50;;;;;;;26.55;39.97;99844.59;4999114;28;20107;-65
2023/08/15 01:51:20;;;;;;;5.97;4.47;;;;;;;26.30;40.50;99836.28;4999099;28;20093;-65
2023/08/15 01:53:45;;;;;;;4.80;4.30;;;;;;;26.33;40.86;99831.16;4999432;28;20030;-66
2023/08/15 01:56:12;;;;;;;5.45;4.07;;;;;;;26.44;40.69;99833.94;4999124;28;20111;-65
2023/08/15 01:58:38;;;;;;;5.10;4.32;;;;;;;26.43;40.67;99830.41;4999419;28;20046;-65
2023/08/15 02:01:03;;;;;;;4.63;3.92;;;;;;;26.47;39.99;99831.50;4998568;28;20279;-65
2023/08/15 02:03:29;;;;;;;5.03;4.53;;;;;;;26.52;40.06;99831.53;4998964;28;20448;-65
2023/08/15 02:05:54;;;;;;;4.57;4.05;;;;;;;26.60;39.63;99835.63;4996682;28;20118;-65
2023/08/15 02:08:21;;;;;;;6.40;4.32;;;;;;;26.65;39.65;99830.22;4999111;28;20046;-66
2023/08/15 02:10:46;;;;;;;5.60;5.05;;;;;;;26.68;39.40;99835.94;4998312;28;20050;-65
2023/08/15 02:13:12;;;;;;;5.53;4.13;;;;;;;26.72;40.32;99839.75;4998222;28;20041;-65
2023/08/15 02:15:37;;;;;;;7.25;4.47;;;;;;;26.72;40.20;99838.94;4998458;28;20034;-65
2023/08/15 02:18:03;;;;;;;6.90;4.55;;;;;;;26.76;39.20;99831.09;4998915;28;20038;-65
2023/08/15 02:20:28;;;;;;;4.90;4.20;;;;;;;26.71;39.72;99829.97;4998816;28;20263;-65
2023/08/15 02:22:54;;;;;;;4.97;4.30;;;;;;;26.61;40.24;99827.22;4998839;28;20088;-65
2023/08/15 02:25:19;;;;;;;5.82;4.50;;;;;;;26.52;40.70;99819.84;4997898;28;20320;-65
2023/08/15 02:27:45;;;;;;;6.22;4.20;;;;;;;26.56;41.14;99832.63;4997191;28;20345;-65
2023/08/15 02:30:11;;;;;;;5.47;4.30;;;;;;;26.53;41.21;99841.31;4998645;28;20049;-64
2023/08/15 02:32:36;;;;;;;8.70;4.80;;;;;;;26.51;41.66;99831.78;4998052;28;20057;-65
2023/08/15 02:35:02;;;;;;;7.47;4.57;;;;;;;26.50;41.33;99832.88;4998424;28;20084;-65
2023/08/15 02:37:27;;;;;;;6.55;3.95;;;;;;;26.48;41.45;99830.44;4998796;28;20072;-65
2023/08/15 02:39:52;;;;;;;4.80;4.40;;;;;;;26.47;41.73;99828.78;4999357;28;20201;-65
2023/08/15 02:42:18;;;;;;;6.85;4.35;;;;;;;26.48;41.54;99826.91;4996877;28;20365;-65
2023/08/15 02:44:43;;;;;;;7.88;4.65;;;;;;;26.47;41.84;99834.22;4998252;28;20053;-65
2023/08/15 02:47:09;;;;;;;6.07;4.03;;;;;;;26.50;41.81;99832.88;4997845;28;20091;-65
2023/08/15 02:49:34;;;;;;;5.13;4.55;;;;;;;26.52;42.04;99836.16;4997632;28;20356;-66
2023/08/15 02:52:00;;;;;;;5.22;3.85;;;;;;;26.45;42.15;99822.00;4997932;28;20340;-65
2023/08/15 02:54:25;;;;;;;5.57;4.20;;;;;;;26.42;42.58;99833.38;4997715;28;20038;-65
2023/08/15 02:56:50;;;;;;;6.35;4.03;;;;;;;26.45;43.27;99841.00;4998486;28;20350;-65
2023/08/15 02:59:16;;;;;;;4.68;4.28;;;;;;;26.42;43.28;99849.66;4998020;28;20042;-65
2023/08/15 03:01:41;;;;;;;6.10;4.45;;;;;;;26.46;43.26;99840.75;4998255;28;20042;-65
2023/08/15 03:04:10;;;;;;;5.30;4.18;;;;;;;26.42;43.58;99831.47;4998717;28;20033;-66
2023/08/15 03:06:36;;;;;;;6.90;3.83;;;;;;;26.38;43.82;99843.94;4998185;28;20058;-65
2023/08/15 03:09:02;;;;;;;6.88;4.63;;;;;;;26.34;43.90;99834.69;5002300;28;20334;-64
2023/08/15 03:11:29;;;;;;;8.38;4.53;;;;;;;26.33;44.14;99833.06;5000963;28;20034;-65
2023/08/15 03:13:55;;;;;;;6.85;4.25;;;;;;;26.30;44.09;99839.81;5001928;28;20035;-65
2023/08/15 03:16:21;;;;;;;5.70;4.82;;;;;;;26.34;44.00;99843.66;5002092;28;20065;-65
2023/08/15 03:18:47;;;;;;;7.10;4.43;;;;;;;26.32;43.56;99840.38;5002724;28;20049;-65
2023/08/15 03:21:12;;;;;;;6.18;4.47;;;;;;;26.33;43.70;99846.63;5002509;28;20244;-65
2023/08/15 03:23:38;;;;;;;9.18;4.35;;;;;;;26.26;43.88;99844.13;5001762;28;20042;-65
2023/08/15 03:26:04;;;;;;;7.28;4.35;;;;;;;26.25;43.81;99845.19;5001349;28;20042;-64
2023/08/15 03:28:30;;;;;;;8.82;4.80;;;;;;;26.31;43.72;99855.00;5001605;28;20034;-65
2023/08/15 03:30:56;;;;;;;5.75;4.93;;;;;;;26.30;43.85;99841.69;5001820;28;20048;-65
2023/08/15 03:33:23;;;;;;;8.00;5.05;;;;;;;26.26;43.96;99841.41;5002093;28;20244;-65
2023/08/15 03:35:52;;;;;;;7.78;5.25;;;;;;;26.27;43.89;99845.75;5001642;28;20034;-64
2023/08/15 03:38:20;;;;;;;8.32;5.15;;;;;;;26.23;43.58;99847.38;5003272;28;20034;-65
2023/08/15 03:40:47;;;;;;;9.50;5.47;;;;;;;26.12;44.09;99847.56;5001352;28;20105;-65
2023/08/15 03:43:13;;;;;;;8.30;5.10;;;;;;;26.14;44.03;99851.66;5000581;28;20034;-65
2023/08/15 03:45:39;;;;;;;5.97;5.20;;;;;;;26.10;43.77;99847.81;5000952;28;20046;-65
2023/08/15 03:48:06;;;;;;;10.20;5.10;;;;;;;26.13;44.29;99851.91;5000428;28;20042;-64
2023/08/15 03:50:35;;;;;;;8.13;5.60;;;;;;;26.07;44.20;99851.88;5001889;28;20046;-66
2023/08/15 03:53:01;;;;;;;8.05;5.40;;;;;;;26.02;44.49;99843.69;4999643;28;20026;-66
2023/08/15 03:55:28;;;;;;;8.35;5.22;;;;;;;26.06;44.76;99852.13;5000081;28;20030;-65
2023/08/15 03:57:54;;;;;;;9.15;5.07;;;;;;;26.05;44.81;99853.22;4999856;28;20039;-65
2023/08/15 04:00:19;;;;;;;7.38;5.20;;;;;;;26.12;44.83;99861.94;5000404;28;20232;-65
2023/08/15 04:02:45;;;;;;;6.72;5.55;;;;;;;26.15;44.90;99858.72;5001662;28;20031;-66
2023/08/15 04:05:12;;;;;;;13.65;5.38;;;;;;;26.19;44.94;99861.72;5000036;28;20069;-65
2023/08/15 04:07:38;;;;;;;8.07;6.13;;;;;;;26.14;45.28;99864.41;5000610;28;20049;-64
2023/08/15 04:10:04;;;;;;;10.90;4.95;;;;;;;26.11;45.65;99860.31;5000694;28;20355;-65
2023/08/15 04:12:29;;;;;;;14.02;5.90;;;;;;;26.11;45.62;99864.91;5000761;28;20038;-65
2023/08/15 04:14:55;;;;;;;27.45;7.57;;;;;;;26.08;45.66;99861.66;5001542;28;20038;-65
2023/08/15 04:17:21;;;;;;;39.13;10.50;;;;;;;26.04;45.50;99863.25;5001178;28;20089;-65
2023/08/15 04:19:46;;;;;;;46.10;10.73;;;;;;;26.05;45.45;99869.50;5000209;28;20046;-65
2023/08/15 04:22:12;;;;;;;46.85;11.35;;;;;;;26.07;45.05;99861.91;5000003;28;20038;-65
2023/08/15 04:24:37;;;;;;;43.78;9.65;;;;;;;26.08;45.11;99866.25;5001301;28;20042;-65
2023/08/15 04:27:06;;;;;;;54.17;10.70;;;;;;;26.17;44.35;99872.03;5000706;28;20064;-65
2023/08/15 04:29:32;;;;;;;32.05;8.82;;;;;;;26.21;44.50;99870.41;5001535;28;20320;-66
2023/08/15 04:31:58;;;;;;;25.00;7.72;;;;;;;26.21;44.85;99873.94;5000385;28;20034;-64
2023/08/15 04:34:23;;;;;;;16.23;6.93;;;;;;;26.18;44.44;99874.47;5000552;28;20240;-65
2023/08/15 04:36:49;;;;;;;14.43;6.30;;;;;;;26.20;44.56;99868.78;4999704;28;20062;-65
2023/08/15 04:39:17;;;;;;;12.88;6.38;;;;;;;26.15;44.51;99871.47;5001748;28;20054;-65
2023/08/15 04:41:43;;;;;;;14.70;7.53;;;;;;;26.12;44.84;99875.50;5000848;28;20101;-65
2023/08/15 04:44:10;;;;;;;20.38;18.38;;;;;;;26.15;45.14;99874.19;4999629;28;20257;-65
2023/08/15 04:46:36;;;;;;;12.90;10.00;;;;;;;26.15;45.52;99876.88;5000294;28;20580;-65
2023/08/15 04:49:02;;;;;;;12.45;7.63;;;;;;;26.15;45.35;99883.13;4999839;28;20038;-65
2023/08/15 04:51:27;;;;;;;15.30;11.20;;;;;;;26.12;45.56;99882.84;5000590;28;20285;-65
2023/08/15 04:53:53;;;;;;;7.78;5.80;;;;;;;26.11;45.55;99873.06;5000005;28;20037;-65
2023/08/15 04:56:18;;;;;;;9.23;5.20;;;;;;;26.04;45.39;99876.81;5000260;28;20085;-65
2023/08/15 04:58:44;;;;;;;8.32;5.40;;;;;;;26.06;45.31;99887.41;5000287;28;20041;-65
2023/08/15 05:01:09;;;;;;;9.90;5.63;;;;;;;26.08;45.02;99885.25;5001643;28;20096;-65
2023/08/15 05:03:35;;;;;;;7.53;5.18;;;;;;;26.17;44.70;99878.25;5000215;28;20045;-65
2023/08/15 05:06:02;;;;;;;7.57;5.45;;;;;;;26.17;44.59;99891.03;4999317;28;20042;-65
2023/08/15 05:08:28;;;;;;;10.35;9.35;;;;;;;26.14;45.11;99888.81;4999390;28;20065;-65
2023/08/15 05:10:54;;;;;;;10.13;9.02;;;;;;;26.14;45.28;99897.78;4999055;28;20161;-65
2023/08/15 05:13:20;;;;;;;9.75;7.32;;;;;;;26.18;45.65;99892.66;4999760;28;20218;-65
2023/08/15 05:15:46;;;;;;;11.32;6.90;;;;;;;26.23;46.10;99892.69;4999191;28;20070;-65
2023/08/15 05:18:13;;;;;;;11.50;7.03;;;;;;;26.28;46.27;99895.44;4999374;28;20038;-65
2023/08/15 05:20:38;;;;;;;10.77;7.05;;;;;;;26.28;46.40;99892.72;5000622;28;20038;-65
2023/08/15 05:23:04;;;;;;;12.68;7.45;;;;;;;26.32;45.73;99901.97;4999899;28;20093;-64
2023/08/15 05:25:29;;;;;;;7.85;6.97;;;;;;;26.17;45.20;99885.59;5000430;28;20038;-65
2023/08/15 05:27:56;;;;;;;14.25;7.00;;;;;;;26.23;45.58;99896.22;4999247;28;20051;-65
2023/08/15 05:30:22;;;;;;;8.65;6.57;;;;;;;26.18;45.74;99903.50;4999460;28;20070;-65
2023/08/15 05:32:47;;;;;;;10.60;6.93;;;;;;;26.13;46.22;99907.00;4999079;28;20041;-66
2023/08/15 05:35:13;;;;;;;10.85;7.20;;;;;;;26.11;46.44;99900.19;5000358;28;20050;-65
2023/08/15 05:37:38;;;;;;;11.90;6.82;;;;;;;26.12;46.44;99894.50;4999248;28;20236;-65
2023/08/15 05:40:04;;;;;;;8.52;5.93;;;;;;;26.12;46.83;99899.13;4999463;28;20054;-65
2023/08/15 05:42:30;;;;;;;11.85;6.75;;;;;;;26.11;47.26;99898.31;4999344;28;20049;-65
2023/08/15 05:44:56;;;;;;;8.40;6.30;;;;;;;26.10;47.21;99896.66;4999594;28;20140;-65
2023/08/15 05:47:21;;;;;;;9.88;6.40;;;;;;;26.18;47.60;99898.09;4999634;28;20284;-65
2023/08/15 05:49:47;;;;;;;10.80;6.03;;;;;;;26.21;47.84;99892.13;4999341;28;20101;-65
2023/08/15 05:52:12;;;;;;;9.40;6.40;;;;;;;26.23;47.09;99893.50;4999415;28;20061;-65
2023/08/15 05:54:38;;;;;;;11.63;7.03;;;;;;;26.23;47.16;99895.41;4998801;28;20081;-65
2023/08/15 05:57:04;;;;;;;13.50;6.68;;;;;;;26.16;47.43;99892.91;4999011;28;20057;-66
2023/08/15 05:59:30;;;;;;;10.18;6.53;;;;;;;26.13;47.25;99889.91;4999300;28;20527;-65
2023/08/15 06:01:55;;;;;;;12.45;5.70;;;;;;;26.09;47.47;99887.72;4997911;28;20814;-65
2023/08/15 06:04:21;;;;;;;10.75;6.20;;;;;;;26.07;47.63;99880.91;4998951;28;20044;-65
2023/08/15 06:06:46;;;;;;;9.35;5.97;;;;;;;26.02;47.44;99883.59;4996999;28;20049;-64
2023/08/15 06:09:12;;;;;;;8.80;6.10;;;;;;;26.04;47.11;99884.97;4997727;28;20046;-65
2023/08/15 06:11:37;;;;;;;7.10;5.40;;;;;;;26.03;47.02;99887.94;4997246;28;20366;-65
2023/08/15 06:14:03;;;;;;;7.88;5.20;;;;;;;26.01;47.34;99890.91;4998688;28;20046;-65
2023/08/15 06:16:29;;;;;;;12.20;6.05;;;;;;;26.04;47.34;99886.84;4997491;28;20089;-65
2023/08/15 06:18:54;;;;;;;15.10;6.50;;;;;;;26.04;47.37;99881.44;4998174;28;20542;-65
2023/08/15 06:21:20;;;;;;;8.80;6.07;;;;;;;26.05;48.17;99886.59;4998363;28;20053;-65
2023/08/15 06:23:45;;;;;;;9.00;6.13;;;;;;;26.06;48.04;99885.53;5004098;28;20091;-65
2023/08/15 06:26:11;;;;;;;11.60;6.35;;;;;;;26.11;48.04;99890.16;5011204;28;20332;-65
2023/08/15 06:28:36;;;;;;;17.27;6.25;;;;;;;26.16;48.05;99892.09;5012495;28;20053;-65
2023/08/15 06:31:02;;;;;;;8.18;6.07;;;;;;;26.20;48.03;99885.06;5012647;28;20045;-64
2023/08/15 06:33:28;;;;;;;10.57;5.68;;;;;;;26.22;47.21;99891.88;5013079;28;20059;-65
2023/08/15 06:35:53;;;;;;;10.55;6.05;;;;;;;26.22;46.83;99883.72;5010261;28;20039;-64
2023/08/15 06:38:19;;;;;;;10.10;6.53;;;;;;;26.19;46.99;99876.09;5013129;28;20301;-65
2023/08/15 06:40:44;;;;;;;13.95;6.72;;;;;;;26.13;46.94;99863.59;5010952;28;20323;-65
2023/08/15 06:43:10;;;;;;;13.50;6.57;;;;;;;26.13;47.08;99879.88;5012323;28;20045;-65
2023/08/15 06:45:38;;;;;;;10.70;6.45;;;;;;;26.15;47.59;99879.59;5011434;28;20080;-65
2023/08/15 06:48:05;;;;;;;12.43;6.63;;;;;;;26.13;47.82;99871.72;5012697;28;20237;-65
2023/08/15 06:50:31;;;;;;;15.27;7.03;;;;;;;26.15;47.94;99875.00;5011298;28;20373;-65
2023/08/15 06:52:57;;;;;;;16.45;7.22;;;;;;;26.19;48.50;99878.81;5012964;28;21034;-64
2023/08/15 06:55:23;;;;;;;12.52;6.18;;;;;;;26.21;48.86;99870.41;5013271;28;20037;-64
2023/08/15 06:57:49;;;;;;;12.45;6.57;;;;;;;26.24;48.38;99878.84;5013404;28;20026;-65
2023/08/15 07:00:16;;;;;;;11.30;5.93;;;;;;;26.28;47.91;99873.72;5012083;28;20314;-65
2023/08/15 07:02:41;;;;;;;12.50;6.68;;;;;;;26.32;48.53;99880.25;5011220;28;20034;-65
2023/08/15 07:05:07;;;;;;;9.80;5.47;;;;;;;26.40;48.12;99875.19;5012018;28;20038;-65
2023/08/15 07:07:33;;;;;;;9.63;6.20;;;;;;;26.23;48.07;99874.50;5011857;28;20050;-64
2023/08/15 07:09:59;;;;;;;8.40;5.63;;;;;;;26.33;47.97;99874.59;5011230;28;20088;-65
2023/08/15 07:12:24;;;;;;;11.32;6.60;;;;;;;26.44;46.91;99874.66;5014387;28;20100;-64
2023/08/15 07:14:50;;;;;;;12.10;6.03;;;;;;;26.46;47.53;99867.88;5015223;28;20038;-65
2023/08/15 07:17:16;;;;;;;12.32;6.13;;;;;;;26.50;47.64;99863.56;5014869;28;20077;-65
2023/08/15 07:19:41;;;;;;;16.48;6.32;;;;;;;26.54;47.52;99872.81;5015029;28;20042;-65
2023/08/15 07:22:07;;;;;;;19.05;6.97;;;;;;;26.57;47.28;99866.03;5015527;28;20046;-64
2023/08/15 07:24:32;;;;;;;29.90;8.18;;;;;;;26.61;47.29;99867.16;5014981;28;20335;-65
2023/08/15 07:26:58;;;;;;;28.90;8.13;;;;;;;26.66;47.46;99869.88;5015091;28;20049;-65
2023/08/15 07:29:24;;;;;;;22.13;8.30;;;;;;;26.69;47.57;99872.06;5016155;28;20451;-65
2023/08/15 07:31:49;;;;;;;11.57;6.03;;;;;;;26.63;47.44;99859.56;5013552;28;20030;-65
2023/08/15 07:34:15;;;;;;;9.50;5.65;;;;;;;26.76;47.29;99864.50;5012794;28;20029;-65
2023/08/15 07:36:40;;;;;;;12.80;6.40;;;;;;;26.77;46.94;99866.13;5009719;28;20045;-65
2023/08/15 07:39:06;;;;;;;12.85;6.10;;;;;;;26.76;47.00;99864.50;5012564;28;20038;-65
2023/08/15 07:41:32;;;;;;;9.10;5.57;;;;;;;26.69;47.76;99870.19;5011444;28;20065;-65
2023/08/15 07:43:57;;;;;;;6.35;5.20;;;;;;;26.78;47.76;99865.06;5011840;28;20083;-65
2023/08/15 07:46:23;;;;;;;7.25;5.15;;;;;;;26.77;47.62;99860.69;5010212;28;20048;-65
2023/08/15 07:48:48;;;;;;;7.32;5.63;;;;;;;26.79;47.84;99861.25;5012542;28;20045;-65
2023/08/15 07:51:14;;;;;;;8.00;5.47;;;;;;;26.81;48.23;99869.13;5011423;28;20052;-65
2023/08/15 07:53:39;;;;;;;7.53;4.95;;;;;;;26.76;48.22;99869.13;5012649;28;20080;-65
2023/08/15 07:56:05;;;;;;;8.57;5.32;;;;;;;26.73;48.54;99868.56;5014366;28;20041;-65
2023/08/15 07:58:33;;;;;;;8.55;4.82;;;;;;;26.77;48.96;99868.03;5014710;28;20084;-65
2023/08/15 08:00:58;;;;;;;12.15;6.40;;;;;;;26.80;49.12;99860.16;5013037;28;20041;-65
2023/08/15 08:03:24;;;;;;;8.38;5.03;;;;;;;26.84;49.37;99855.03;5013573;28;20220;-64
2023/08/15 08:05:49;;;;;;;10.35;5.40;;;;;;;26.84;49.06;99853.13;5013871;28;20118;-65
2023/08/15 08:08:15;;;;;;;6.13;4.90;;;;;;;26.84;49.17;99852.31;5013620;28;20041;-65
2023/08/15 08:10:41;;;;;;;8.63;4.65;;;;;;;26.84;49.94;99852.31;5014146;28;20224;-65
2023/08/15 08:13:09;;;;;;;10.05;5.35;;;;;;;26.84;50.13;99855.03;5014046;28;20101;-65
2023/08/15 08:15:34;;;;;;;8.70;4.80;;;;;;;26.81;50.37;99848.22;5015015;28;20117;-65
2023/08/15 08:18:00;;;;;;;9.90;5.13;;;;;;;26.83;50.94;99853.38;5015544;28;20046;-65
2023/08/15 08:20:26;;;;;;;10.00;5.05;;;;;;;26.86;50.47;99859.09;5011704;28;20397;-66
2023/08/15 08:22:51;;;;;;;7.25;4.97;;;;;;;26.88;50.95;99853.41;5014584;28;20336;-64
2023/08/15 08:25:24;;;;;;;6.18;4.82;;;;;;;26.87;50.13;99849.06;5015084;28;20059;-65
2023/08/15 08:27:50;;;;;;;15.07;5.93;;;;;;;26.87;48.70;99854.50;5013387;28;20065;-65
2023/08/15 08:30:21;;;;;;;8.55;5.32;;;;;;;26.85;48.41;99849.31;5012810;28;20056;-65
2023/08/15 08:32:46;;;;;;;7.72;5.55;;;;;;;26.85;47.89;99849.31;5014905;28;20033;-66
2023/08/15 08:35:15;;;;;;;8.10;5.80;;;;;;;26.83;48.09;99845.22;5015571;28;20068;-65
2023/08/15 08:37:42;;;;;;;10.52;6.10;;;;;;;26.86;47.69;99847.41;5014699;28;20029;-65
2023/08/15 08:40:09;;;;;;;10.00;6.05;;;;;;;26.86;47.91;99850.13;5014588;28;20034;-65
2023/08/15 08:42:35;;;;;;;19.20;6.18;;;;;;;26.87;47.56;99849.06;5012477;28;20030;-65
2023/08/15 08:45:02;;;;;;;7.15;5.38;;;;;;;26.83;47.13;99850.66;5015276;28;20042;-64
2023/08/15 08:47:30;;;;;;;7.85;5.53;;;;;;;26.80;46.73;99853.91;5014723;28;20335;-66
2023/08/15 08:49:58;;;;;;;9.05;5.00;;;;;;;26.78;46.93;99847.94;5013372;28;20034;-64
2023/08/15 08:52:25;;;;;;;7.03;5.28;;;;;;;26.77;47.28;99851.72;5014066;28;20223;-65
2023/08/15 08:54:50;;;;;;;8.73;5.05;;;;;;;26.80;47.95;99849.31;5014200;28;20037;-65
2023/08/15 08:57:18;;;;;;;7.75;5.63;;;;;;;26.81;47.81;99847.41;4997012;28;20101;-65
2023/08/15 08:59:45;;;;;;;8.80;5.20;;;;;;;26.81;48.01;99850.94;5014012;28;20045;-65
2023/08/15 09:02:14;;;;;;;12.93;5.30;;;;;;;26.83;48.32;99854.22;5014724;28;20088;-64
2023/08/15 09:04:41;;;;;;;8.20;5.47;;;;;;;26.80;48.57;99852.03;5013759;28;20037;-64
2023/08/15 09:07:06;;;;;;;8.30;5.72;;;;;;;26.74;48.91;99850.38;5013639;28;20045;-64
2023/08/15 09:09:32;;;;;;;6.53;5.05;;;;;;;26.56;49.70;99854.38;5013155;28;20030;-64
2023/08/15 09:11:57;;;;;;;8.15;5.70;;;;;;;26.45;49.85;99857.28;5013284;28;20041;-64
2023/08/15 09:14:23;;;;;;;6.70;5.03;;;;;;;26.61;50.58;99861.72;5012290;28;20340;-65
2023/08/15 09:16:49;;;;;;;7.72;5.03;;;;;;;26.72;49.84;99866.13;5013015;28;20336;-65
2023/08/15 09:19:15;;;;;;;8.82;5.28;;;;;;;26.77;49.29;99868.84;5013655;28;20041;-65
2023/08/15 09:21:42;;;;;;;7.55;5.03;;;;;;;26.81;48.70;99869.13;5014440;28;20317;-65
2023/08/15 09:24:09;;;;;;;8.57;4.90;;;;;;;26.81;48.80;99861.81;5012354;28;20176;-65
2023/08/15 09:26:36;;;;;;;8.65;4.90;;;;;;;26.84;48.96;99858.56;5012979;28;20034;-64
2023/08/15 09:29:03;;;;;;;6.90;5.05;;;;;;;26.84;48.97;99857.75;5012990;28;20262;-65
2023/08/15 09:31:29;;;;;;;13.55;5.22;;;;;;;26.75;48.15;99849.28;5013317;28;20041;-64
2023/08/15 09:33:55;;;;;;;7.90;5.10;;;;;;;26.78;47.71;99846.03;5013466;28;20092;-65
2023/08/15 09:36:23;;;;;;;5.53;4.47;;;;;;;26.77;47.30;99846.31;5012010;28;20347;-64
2023/08/15 09:38:54;;;;;;;5.40;4.90;;;;;;;26.78;47.50;99847.94;5014110;28;20263;-65
2023/08/15 09:41:23;;;;;;;6.57;5.10;;;;;;;26.80;47.08;99848.47;5011990;28;20034;-65
2023/08/15 09:43:50;;;;;;;8.13;4.80;;;;;;;26.69;47.10;99839.47;5012477;28;20022;-65
2023/08/15 09:46:18;;;;;;;7.63;5.32;;;;;;;26.84;47.01;99853.13;5013320;28;20042;-65
2023/08/15 09:48:46;;;;;;;9.00;4.75;;;;;;;26.88;46.45;99850.69;5013318;28;20030;-65
2023/08/15 09:51:13;;;;;;;9.93;5.63;;;;;;;26.92;46.25;99846.34;5013865;28;20264;-65
2023/08/15 09:53:41;;;;;;;6.88;5.00;;;;;;;26.92;46.33;99847.16;5010571;28;20034;-65
2023/08/15 09:56:08;;;;;;;10.40;6.00;;;;;;;26.96;46.64;99848.28;5013085;28;20052;-65
2023/08/15 09:58:33;;;;;;;8.60;5.22;;;;;;;26.97;46.96;99851.81;5012315;28;20057;-65
2023/08/15 10:01:01;;;;;;;8.23;5.32;;;;;;;26.93;47.66;99848.81;5013262;28;20254;-65
2023/08/15 10:03:34;;;;;;;8.70;5.07;;;;;;;26.97;47.50;99849.94;5011606;28;20026;-65
2023/08/15 10:06:02;;;;;;;10.02;5.10;;;;;;;27.04;46.63;99845.06;5013481;28;20137;-65
2023/08/15 10:08:29;;;;;;;7.60;5.88;;;;;;;27.07;47.39;99846.47;5010468;28;20343;-65
2023/08/15 10:10:58;;;;;;;8.48;5.80;;;;;;;27.10;49.34;99839.66;5013554;28;20040;-65
2023/08/15 10:13:44;;;;;;;11.35;5.50;;;;;;;27.10;50.28;99847.81;5016574;28;20068;-65
2023/08/15 10:16:12;;;;;;;6.53;5.65;;;;;;;26.98;51.61;99850.75;5015843;28;20267;-65
2023/08/15 10:18:38;;;;;;;6.63;5.43;;;;;;;26.86;52.29;99847.41;5015762;28;20038;-65
2023/08/15 10:21:03;;;;;;;6.28;5.65;;;;;;;26.92;54.53;99849.88;5016850;28;20053;-65
2023/08/15 10:23:37;;;;;;;7.45;5.95;;;;;;;26.93;54.91;99851.53;5017243;28;20030;-65
2023/08/15 10:26:02;;;;;;;;;;;;;;;26.99;55.75;99850.47;5015034;28;20044;-65
2023/08/15 10:28:34;;;;;;;7.30;6.28;;;;;;;26.98;55.75;99854.28;5011671;28;19921;-65
2023/08/15 10:30:59;;;;;;;6.63;5.93;;;;;;;27.05;55.21;99856.78;5012829;28;20112;-65
2023/08/15 10:33:28;;;;;;;7.28;5.60;;;;;;;27.07;54.88;99864.66;5012509;28;20518;-65
2023/08/15 10:35:54;;;;;;;8.75;5.90;;;;;;;27.06;55.52;99855.69;5012489;28;20030;-64
2023/08/15 10:38:35;;;;;;;7.38;5.70;;;;;;;27.08;55.50;99853.53;5012511;28;20038;-65
2023/08/15 10:41:05;;;;;;;6.50;5.70;;;;;;;27.06;55.96;99854.88;5010977;28;20034;-65
2023/08/15 10:43:33;;;;;;;9.60;6.65;;;;;;;27.04;56.17;99847.78;5011694;28;20072;-65
2023/08/15 10:46:06;;;;;;;9.57;6.57;;;;;;;27.05;55.89;99851.34;5012546;28;20045;-65
2023/08/15 10:48:44;;;;;;;7.95;6.28;;;;;;;27.04;56.27;99853.22;5011745;28;20286;-64
2023/08/15 10:51:17;;;;;;;7.97;6.07;;;;;;;27.10;56.39;99861.41;5011556;28;20201;-66
2023/08/15 10:53:43;;;;;;;8.52;6.13;;;;;;;27.12;56.57;99861.97;5013235;28;20022;-65
2023/08/15 10:56:09;;;;;;;15.35;6.97;;;;;;;27.11;56.98;99852.19;5011359;28;20091;-66
2023/08/15 10:58:37;;;;;;;8.25;5.78;;;;;;;27.12;56.40;99848.38;5011976;28;20044;-65
2023/08/15 11:01:03;;;;;;;8.20;6.75;;;;;;;27.12;56.69;99849.19;5012441;28;20042;-65
2023/08/15 11:03:28;;;;;;;7.65;6.63;;;;;;;27.00;57.25;99840.44;5012119;28;20093;-65
2023/08/15 11:06:06;;;;;;;7.43;6.35;;;;;;;26.90;58.55;99848.53;5010434;28;20045;-65
2023/08/15 11:08:31;;;;;;;8.73;6.50;;;;;;;26.84;59.66;99852.31;5011219;28;20049;-65
2023/08/15 11:10:56;;;;;;;8.02;6.30;;;;;;;26.95;58.83;99859.41;5012305;28;20049;-65
2023/08/15 11:13:22;;;;;;;9.13;6.68;;;;;;;26.99;59.28;99852.38;5010697;28;20036;-65
2023/08/15 11:15:47;;;;;;;10.88;7.60;;;;;;;27.00;59.18;99849.41;5011631;28;20038;-65
2023/08/15 11:18:23;;;;;;;8.65;6.82;;;;;;;27.01;59.21;99845.59;5010346;28;20025;-66
2023/08/15 11:20:50;;;;;;;8.45;6.50;;;;;;;27.00;59.39;99849.41;5012239;28;20080;-66
2023/08/15 11:23:15;;;;;;;8.95;6.30;;;;;;;27.02;59.67;99847.22;5009578;28;20109;-65
2023/08/15 11:25:41;;;;;;;8.50;7.60;;;;;;;27.02;60.29;99852.66;5016216;28;20033;-65
2023/08/15 11:28:06;;;;;;;11.30;6.78;;;;;;;27.02;60.17;99849.13;5016438;28;20231;-65